KAXV/AXV METAR and TAF weather

Enter ICAO airport designator
Station Type Date Time Source
KAXV METAR 2020/01/18 04:35 UTC NOAA

KAXV 180435Z AUTO 12011KT 1 1/2SM -SN BKN012 OVC018 M02/M05 A3039 RMK AO2


Station Type Date Time Source
KAXV Decoded METAR 2020/01/18 04:35 UTC NOAA

Station name not available
Jan 17, 2020 - 11:35 PM EST / 2020.01.18 0435 UTC
Wind: from the ESE (120 degrees) at 13 MPH (11 KT):0
Visibility: 1 1/2 mile(s):0
Sky conditions: overcast
Weather: light snow
Temperature: 28 F (-2 C)
Windchill: 17 F (-8 C):1
Dew Point: 23 F (-5 C)
Relative Humidity: 79%
Pressure (altimeter): 30.39 in. Hg (1029 hPa)
ob: KAXV 180435Z AUTO 12011KT 1 1/2SM -SN BKN012 OVC018 M02/M05 A3039 RMK AO2
cycle: 4

Station Type Date Time Source
KAXV TAF UTC NOAA

Error!

Example: see airport list